createdAt,value
2018-08-22T00:01:55.464Z,3.27
2018-08-22T00:04:59.872Z,5.77
2018-08-22T00:08:04.164Z,3.07
2018-08-22T00:11:08.455Z,2.63
2018-08-22T00:14:12.741Z,4.80
2018-08-22T00:17:17.056Z,5.33
2018-08-22T00:20:21.319Z,3.07
2018-08-22T00:23:25.571Z,3.13
2018-08-22T00:26:29.849Z,4.00
2018-08-22T00:29:34.238Z,4.67
2018-08-22T00:32:38.478Z,4.17
2018-08-22T00:35:42.638Z,5.93
2018-08-22T00:38:46.921Z,4.87
2018-08-22T00:41:51.151Z,3.27
2018-08-22T00:44:55.451Z,4.33
2018-08-22T00:47:59.715Z,3.63
2018-08-22T00:51:03.983Z,4.07
2018-08-22T00:54:08.319Z,2.60
2018-08-22T00:57:12.562Z,4.53
2018-08-22T01:00:16.862Z,4.97
2018-08-22T01:03:21.158Z,2.43
2018-08-22T01:06:25.755Z,2.93
2018-08-22T01:09:29.826Z,2.90
2018-08-22T01:12:34.087Z,3.97
2018-08-22T01:15:38.361Z,3.67
2018-08-22T01:18:42.676Z,3.77
2018-08-22T01:21:46.998Z,2.80
2018-08-22T01:24:51.325Z,4.23
2018-08-22T01:27:55.561Z,3.77
2018-08-22T01:30:59.847Z,3.40
2018-08-22T01:34:04.106Z,2.63
2018-08-22T01:37:08.326Z,5.37
2018-08-22T01:40:12.534Z,2.50
2018-08-22T01:43:16.910Z,2.20
2018-08-22T01:46:21.246Z,3.23
2018-08-22T01:49:25.481Z,3.30
2018-08-22T01:52:29.727Z,2.80
2018-08-22T01:55:33.978Z,3.23
2018-08-22T01:58:38.143Z,1.83
2018-08-22T02:01:42.451Z,3.87
2018-08-22T02:04:46.705Z,3.33
2018-08-22T02:07:51.067Z,5.30
2018-08-22T02:10:55.412Z,5.97
2018-08-22T02:13:59.699Z,2.60
2018-08-22T02:17:03.975Z,3.10
2018-08-22T02:20:08.283Z,2.67
2018-08-22T02:23:12.563Z,3.17
2018-08-22T02:26:16.879Z,3.30
2018-08-22T02:29:21.206Z,6.27
2018-08-22T02:32:25.524Z,2.83
2018-08-22T02:35:29.843Z,3.50
2018-08-22T02:38:34.301Z,4.20
2018-08-22T02:41:38.621Z,4.30
2018-08-22T02:44:42.900Z,3.93
2018-08-22T02:47:47.137Z,3.40
2018-08-22T02:50:51.242Z,3.87
2018-08-22T02:53:55.567Z,4.10
2018-08-22T02:56:59.871Z,3.23
2018-08-22T03:00:04.216Z,3.47
2018-08-22T03:03:08.479Z,5.10
2018-08-22T03:06:12.847Z,6.23
2018-08-22T03:09:17.143Z,2.93
2018-08-22T03:12:21.476Z,3.70
2018-08-22T03:15:25.796Z,2.30
2018-08-22T03:18:30.112Z,4.63
2018-08-22T03:21:34.600Z,6.10
2018-08-22T03:24:38.859Z,3.67
2018-08-22T03:27:43.180Z,3.17
2018-08-22T03:30:47.807Z,6.40
2018-08-22T03:33:52.167Z,5.03
2018-08-22T03:36:56.463Z,5.03
2018-08-22T03:40:00.767Z,4.37
2018-08-22T03:43:05.103Z,5.60
2018-08-22T03:46:09.422Z,3.87
2018-08-22T03:49:13.749Z,3.57
2018-08-22T03:52:18.067Z,2.70
2018-08-22T03:55:22.386Z,4.90
2018-08-22T03:58:26.701Z,5.13
2018-08-22T04:01:31.060Z,4.07
2018-08-22T04:04:35.314Z,3.43
2018-08-22T04:07:39.329Z,5.00
2018-08-22T04:10:43.781Z,3.70
2018-08-22T04:13:48.138Z,4.30
2018-08-22T04:16:52.423Z,3.60
2018-08-22T04:19:56.687Z,3.67
2018-08-22T04:23:01.884Z,2.40
2018-08-22T04:26:06.184Z,3.57
2018-08-22T04:29:10.440Z,3.63
2018-08-22T04:32:14.694Z,3.57
2018-08-22T04:35:19.075Z,3.90
2018-08-22T04:38:23.412Z,3.43
2018-08-22T04:41:27.698Z,2.93
2018-08-22T04:44:31.979Z,3.83
2018-08-22T04:47:36.261Z,5.03
2018-08-22T04:50:40.580Z,4.80
2018-08-22T04:53:44.888Z,6.33
2018-08-22T04:56:49.268Z,6.23
2018-08-22T04:59:53.352Z,3.30
2018-08-22T05:02:57.621Z,6.30
2018-08-22T05:06:01.866Z,3.70
2018-08-22T05:09:08.408Z,5.40
2018-08-22T05:12:12.776Z,9.77
2018-08-22T05:15:16.929Z,3.47
2018-08-22T05:18:21.724Z,2.27
2018-08-22T05:21:26.006Z,3.83
2018-08-22T05:24:30.322Z,4.70
2018-08-22T05:27:34.668Z,7.73
2018-08-22T05:30:39.093Z,3.53
2018-08-22T05:33:43.472Z,11.47
2018-08-22T05:36:47.714Z,5.50
2018-08-22T05:39:51.944Z,2.43
2018-08-22T05:42:56.278Z,4.43
2018-08-22T05:46:00.608Z,7.20
2018-08-22T05:49:04.984Z,4.00
2018-08-22T05:52:09.224Z,6.80
2018-08-22T05:55:13.542Z,5.33
2018-08-22T05:58:17.864Z,2.60
2018-08-22T06:01:22.206Z,3.17
2018-08-22T06:04:26.476Z,4.27
2018-08-22T06:07:30.849Z,3.87
2018-08-22T06:10:35.150Z,4.27
2018-08-22T06:13:39.300Z,4.03
2018-08-22T06:16:43.589Z,6.83
2018-08-22T06:19:49.186Z,6.23
2018-08-22T06:22:53.564Z,5.80
2018-08-22T06:25:57.883Z,7.07
2018-08-22T06:29:02.207Z,3.00
2018-08-22T06:32:06.509Z,2.80
2018-08-22T06:35:10.833Z,4.00
2018-08-22T06:38:15.169Z,2.90
2018-08-22T06:41:19.497Z,3.03
2018-08-22T06:44:23.849Z,3.37
2018-08-22T06:47:28.039Z,2.83
2018-08-22T06:50:32.343Z,6.23
2018-08-22T06:53:36.679Z,3.53
2018-08-22T06:56:40.767Z,5.07
2018-08-22T06:59:45.007Z,2.93
2018-08-22T07:02:49.367Z,3.50
2018-08-22T07:05:53.713Z,5.30
2018-08-22T07:08:58.165Z,3.83
2018-08-22T07:12:02.436Z,3.17
2018-08-22T07:15:07.697Z,2.93
2018-08-22T07:18:12.032Z,2.67
2018-08-22T07:21:16.404Z,6.83
2018-08-22T07:24:20.770Z,5.77
2018-08-22T07:27:25.177Z,3.13
2018-08-22T07:30:29.497Z,4.63
2018-08-22T07:33:33.824Z,2.33
2018-08-22T07:36:38.246Z,8.90
2018-08-22T07:39:42.531Z,5.07
2018-08-22T07:42:46.883Z,3.30
2018-08-22T07:45:51.780Z,9.73
2018-08-22T07:48:56.124Z,3.97
2018-08-22T07:52:00.550Z,3.93
2018-08-22T07:55:04.872Z,3.67
2018-08-22T07:58:09.188Z,4.67
2018-08-22T08:01:13.491Z,6.27
2018-08-22T08:04:17.829Z,4.27
2018-08-22T08:07:22.162Z,4.03
2018-08-22T08:10:31.521Z,5.87
2018-08-22T08:13:35.814Z,5.40
2018-08-22T08:16:40.290Z,3.80
2018-08-22T08:19:44.578Z,4.70
2018-08-22T08:22:48.861Z,3.57
2018-08-22T08:25:53.203Z,5.00
2018-08-22T08:28:57.617Z,5.57
2018-08-22T08:32:01.928Z,4.40
2018-08-22T08:35:06.228Z,3.10
2018-08-22T08:38:11.707Z,4.80
2018-08-22T08:41:16.017Z,4.43
2018-08-22T08:44:20.332Z,4.40
2018-08-22T08:47:25.121Z,9.27
2018-08-22T08:50:29.503Z,4.27
2018-08-22T08:53:33.924Z,4.23
2018-08-22T08:56:38.168Z,3.97
2018-08-22T08:59:42.532Z,11.40
2018-08-22T09:02:46.884Z,5.57
2018-08-22T09:05:51.170Z,4.57
2018-08-22T09:08:55.528Z,4.83
2018-08-22T09:12:00.997Z,4.30
2018-08-22T09:15:06.358Z,5.93
2018-08-22T09:18:10.960Z,4.27
2018-08-22T09:21:15.261Z,5.70
2018-08-22T09:24:19.535Z,4.03
2018-08-22T09:27:23.854Z,4.37
2018-08-22T09:30:28.190Z,5.13
2018-08-22T09:33:32.516Z,3.53
2018-08-22T09:36:36.838Z,3.00
2018-08-22T09:39:41.192Z,9.53
2018-08-22T09:42:45.485Z,5.60
2018-08-22T09:45:49.826Z,2.87
2018-08-22T09:48:54.192Z,2.63
2018-08-22T09:51:58.500Z,2.50
2018-08-22T09:55:04.236Z,1.50
2018-08-22T09:58:08.610Z,5.73
2018-08-22T10:01:18.061Z,4.90
2018-08-22T10:04:22.329Z,5.03
2018-08-22T10:07:26.742Z,7.97
2018-08-22T10:10:30.985Z,2.80
2018-08-22T10:13:35.326Z,3.53
2018-08-22T10:16:39.686Z,4.20
2018-08-22T10:19:44.161Z,3.53
2018-08-22T10:22:48.414Z,4.03
2018-08-22T10:25:52.717Z,2.90
2018-08-22T10:28:57.122Z,5.00
2018-08-22T10:32:01.563Z,6.83
2018-08-22T10:35:06.583Z,4.53
2018-08-22T10:38:10.872Z,3.97
2018-08-22T10:41:15.155Z,2.93
2018-08-22T10:44:19.544Z,2.57
2018-08-22T10:47:23.952Z,4.17
2018-08-22T10:50:28.354Z,3.80
2018-08-22T10:53:32.695Z,3.00
2018-08-22T10:56:37.015Z,5.10
2018-08-22T10:59:41.444Z,2.73
2018-08-22T11:02:45.864Z,3.43
2018-08-22T11:05:50.198Z,1.73
2018-08-22T11:08:54.502Z,2.40
2018-08-22T11:11:58.803Z,4.70
2018-08-22T11:15:03.156Z,3.00
2018-08-22T11:18:07.470Z,3.40
2018-08-22T11:21:28.789Z,1.80
2018-08-22T11:24:50.182Z,2.37
2018-08-22T11:28:11.531Z,3.17
2018-08-22T11:31:32.972Z,2.67
2018-08-22T11:34:48.197Z,2.43
2018-08-22T11:37:52.552Z,4.40
2018-08-22T11:40:56.821Z,5.03
2018-08-22T11:44:01.194Z,2.80
2018-08-22T11:47:05.623Z,2.23
2018-08-22T11:50:09.893Z,4.53
2018-08-22T11:53:14.372Z,4.60
2018-08-22T11:56:18.761Z,4.00
2018-08-22T11:59:23.082Z,3.27
2018-08-22T12:02:27.357Z,2.37
2018-08-22T12:05:31.701Z,5.37
2018-08-22T12:08:36.013Z,2.97
2018-08-22T12:11:40.744Z,2.43
2018-08-22T12:14:45.070Z,1.77
2018-08-22T12:17:49.405Z,4.00
2018-08-22T12:20:53.815Z,2.80
2018-08-22T12:23:58.165Z,4.23
2018-08-22T12:27:02.518Z,6.87
2018-08-22T12:30:06.795Z,4.07
2018-08-22T12:33:11.189Z,2.47
2018-08-22T12:36:32.120Z,1.50
2018-08-22T12:39:36.421Z,1.93
2018-08-22T12:42:40.728Z,3.10
2018-08-22T12:45:45.048Z,3.90
2018-08-22T12:48:49.397Z,3.97
2018-08-22T12:51:53.679Z,2.50
2018-08-22T12:54:58.006Z,4.77
2018-08-22T12:58:02.335Z,4.20
2018-08-22T13:01:07.071Z,5.30
2018-08-22T13:04:11.756Z,2.77
2018-08-22T13:07:16.029Z,2.37
2018-08-22T13:10:21.190Z,4.10
2018-08-22T13:13:25.432Z,2.30
2018-08-22T13:16:29.759Z,4.67
2018-08-22T13:19:34.101Z,6.37
2018-08-22T13:22:38.390Z,3.63
2018-08-22T13:25:42.718Z,5.63
2018-08-22T13:28:47.248Z,4.07
2018-08-22T13:31:51.595Z,2.93
2018-08-22T13:34:55.892Z,3.10
2018-08-22T13:38:00.204Z,3.20
2018-08-22T13:41:04.535Z,3.10
2018-08-22T13:44:09.015Z,2.43
2018-08-22T13:47:13.501Z,3.00
2018-08-22T13:50:17.810Z,2.20
2018-08-22T13:53:22.147Z,3.30
2018-08-22T13:56:26.466Z,2.10
2018-08-22T13:59:30.770Z,5.83
2018-08-22T14:02:35.100Z,3.17
2018-08-22T14:05:39.564Z,3.97
2018-08-22T14:08:43.843Z,3.83
2018-08-22T14:11:48.144Z,4.30
2018-08-22T14:14:52.490Z,3.17
2018-08-22T14:17:56.789Z,3.37
2018-08-22T14:21:01.107Z,6.97
2018-08-22T14:24:05.415Z,7.20
2018-08-22T14:27:09.768Z,6.13
2018-08-22T14:30:14.187Z,5.93
2018-08-22T14:33:18.733Z,6.37
2018-08-22T14:36:23.041Z,4.50
2018-08-22T14:39:27.505Z,5.07
2018-08-22T14:42:31.680Z,2.60
2018-08-22T14:45:36.003Z,2.20
2018-08-22T14:48:40.285Z,7.27
2018-08-22T14:51:44.584Z,5.60
2018-08-22T14:54:48.940Z,4.57
2018-08-22T14:57:53.203Z,3.80
2018-08-22T15:00:57.569Z,3.60
2018-08-22T15:04:01.873Z,2.77
2018-08-22T15:07:06.392Z,5.70
2018-08-22T15:10:14.534Z,2.90
2018-08-22T15:13:18.824Z,3.47
2018-08-22T15:16:23.132Z,8.73
2018-08-22T15:19:27.464Z,2.97
2018-08-22T15:22:32.069Z,4.13
2018-08-22T15:25:36.687Z,4.73
2018-08-22T15:28:40.952Z,3.70
2018-08-22T15:31:45.254Z,3.83
2018-08-22T15:34:54.839Z,4.00
2018-08-22T15:37:59.219Z,3.70
2018-08-22T15:41:03.611Z,3.20
2018-08-22T15:44:07.874Z,2.37
2018-08-22T15:47:12.768Z,2.60
2018-08-22T15:50:17.038Z,2.43
2018-08-22T15:53:21.363Z,3.13
2018-08-22T15:56:25.748Z,3.87
2018-08-22T15:59:30.071Z,3.13
2018-08-22T16:02:35.041Z,2.57
2018-08-22T16:05:40.492Z,3.37
2018-08-22T16:08:44.918Z,3.37
2018-08-22T16:11:49.189Z,2.77
2018-08-22T16:14:53.433Z,2.63
2018-08-22T16:17:58.097Z,5.43
2018-08-22T16:21:03.119Z,2.87
2018-08-22T16:24:07.673Z,5.57
2018-08-22T16:27:12.003Z,4.13
2018-08-22T16:30:16.292Z,2.83
2018-08-22T16:33:20.601Z,3.57
2018-08-22T16:36:28.987Z,4.13
2018-08-22T16:39:41.728Z,3.97
2018-08-22T16:42:46.180Z,5.33
2018-08-22T16:45:55.380Z,4.67
2018-08-22T16:48:59.751Z,4.07
2018-08-22T16:52:04.207Z,4.00
2018-08-22T16:55:20.434Z,6.27
2018-08-22T16:58:24.829Z,4.73
2018-08-22T17:01:29.589Z,5.83
2018-08-22T17:04:33.946Z,4.33
2018-08-22T17:07:38.311Z,5.27
2018-08-22T17:10:59.260Z,4.47
2018-08-22T17:14:03.613Z,3.73
2018-08-22T17:17:07.880Z,4.10
2018-08-22T17:20:12.237Z,5.10
2018-08-22T17:23:16.564Z,3.03
2018-08-22T17:26:22.991Z,4.93
2018-08-22T17:29:27.341Z,4.20
2018-08-22T17:32:31.636Z,5.60
2018-08-22T17:35:41.162Z,6.57
2018-08-22T17:38:48.253Z,5.40
2018-08-22T17:41:52.678Z,4.70
2018-08-22T17:44:57.002Z,5.90
2018-08-22T17:48:02.456Z,5.63
2018-08-22T17:51:07.022Z,3.57
2018-08-22T17:54:11.413Z,2.97
2018-08-22T17:57:23.425Z,3.27
2018-08-22T18:00:30.123Z,3.90
2018-08-22T18:03:34.532Z,3.87
2018-08-22T18:06:38.846Z,4.87
2018-08-22T18:09:43.148Z,3.27
2018-08-22T18:12:47.448Z,3.03
2018-08-22T18:15:51.766Z,4.73
2018-08-22T18:18:56.158Z,7.70
2018-08-22T18:22:00.423Z,3.00
2018-08-22T18:25:04.977Z,6.40
2018-08-22T18:28:09.269Z,5.60
2018-08-22T18:31:13.580Z,6.13
2018-08-22T18:34:17.935Z,3.23
2018-08-22T18:37:22.223Z,3.90
2018-08-22T18:40:30.604Z,4.37
2018-08-22T18:43:34.988Z,6.47
2018-08-22T18:46:39.408Z,7.43
2018-08-22T18:49:43.860Z,7.53
2018-08-22T18:52:50.634Z,3.67
2018-08-22T18:56:13.891Z,4.33
2018-08-22T18:59:26.706Z,3.70
2018-08-22T19:02:31.278Z,5.63
2018-08-22T19:05:36.822Z,3.83
2018-08-22T19:08:41.289Z,4.87
2018-08-22T19:11:46.535Z,4.80
2018-08-22T19:14:50.961Z,9.03
2018-08-22T19:17:55.372Z,3.80
2018-08-22T19:21:01.289Z,3.13
2018-08-22T19:24:06.723Z,3.50
2018-08-22T19:27:11.076Z,3.47
2018-08-22T19:30:15.115Z,7.30
2018-08-22T19:33:21.443Z,4.47
2018-08-22T19:36:26.605Z,5.47
2018-08-22T19:39:30.756Z,6.47
2018-08-22T19:42:37.182Z,6.63
2018-08-22T19:45:41.482Z,4.27
2018-08-22T19:48:45.826Z,6.00
2018-08-22T19:51:51.670Z,4.47
2018-08-22T19:54:57.646Z,5.43
2018-08-22T19:58:03.609Z,4.60
2018-08-22T20:01:09.173Z,4.97
2018-08-22T20:04:14.470Z,5.33
2018-08-22T20:07:20.861Z,7.30
2018-08-22T20:10:25.265Z,5.60
2018-08-22T20:13:54.165Z,5.07
2018-08-22T20:16:58.483Z,4.93
2018-08-22T20:20:02.633Z,4.23
2018-08-22T20:23:07.078Z,6.83
2018-08-22T20:26:11.430Z,4.77
2018-08-22T20:29:15.760Z,6.50
2018-08-22T20:32:24.737Z,6.00
2018-08-22T20:35:33.343Z,9.07
2018-08-22T20:38:37.715Z,5.97
2018-08-22T20:41:42.861Z,6.03
2018-08-22T20:44:47.701Z,12.47
2018-08-22T20:47:59.190Z,9.97
2018-08-22T20:51:03.500Z,13.60
2018-08-22T20:54:11.904Z,13.97
2018-08-22T20:57:16.203Z,14.07
2018-08-22T21:00:23.893Z,15.17
2018-08-22T21:03:28.254Z,14.03
2018-08-22T21:06:32.553Z,18.40
2018-08-22T21:09:36.933Z,15.00
2018-08-22T21:12:41.049Z,17.27
2018-08-22T21:15:45.455Z,14.43
2018-08-22T21:18:49.873Z,13.53
2018-08-22T21:21:54.301Z,12.60
2018-08-22T21:25:00.162Z,14.20
2018-08-22T21:28:04.441Z,16.03
2018-08-22T21:31:08.788Z,15.77
2018-08-22T21:34:18.353Z,17.50
2018-08-22T21:37:26.076Z,18.63
2018-08-22T21:40:30.599Z,19.03
2018-08-22T21:43:34.987Z,17.70
2018-08-22T21:46:39.282Z,20.13
2018-08-22T21:49:43.647Z,19.20
2018-08-22T21:52:59.327Z,19.03
2018-08-22T21:56:03.663Z,20.00
2018-08-22T21:59:08.485Z,20.23
2018-08-22T22:02:13.112Z,21.67
2018-08-22T22:05:21.587Z,19.27
2018-08-22T22:08:26.032Z,18.57
2018-08-22T22:11:30.284Z,18.17
2018-08-22T22:14:35.805Z,20.17
2018-08-22T22:17:40.205Z,19.13
2018-08-22T22:20:49.168Z,17.87
2018-08-22T22:23:53.401Z,20.80
2018-08-22T22:26:57.885Z,21.37
2018-08-22T22:30:05.013Z,22.97
2018-08-22T22:33:09.277Z,24.63
2018-08-22T22:36:13.675Z,20.60
2018-08-22T22:39:38.004Z,19.00
2018-08-22T22:42:42.258Z,20.67
2018-08-22T22:45:46.600Z,20.77
2018-08-22T22:48:50.897Z,25.40
2018-08-22T22:51:55.217Z,23.93
2018-08-22T22:55:01.727Z,26.87
2018-08-22T22:58:06.141Z,24.23
2018-08-22T23:01:10.405Z,21.13
2018-08-22T23:04:16.227Z,22.17
2018-08-22T23:07:23.283Z,23.33
2018-08-22T23:10:27.594Z,21.27
2018-08-22T23:13:31.726Z,24.97
2018-08-22T23:16:36.864Z,21.37
2018-08-22T23:19:41.188Z,23.93
2018-08-22T23:22:45.432Z,20.17
2018-08-22T23:25:49.877Z,25.00
2018-08-22T23:28:54.034Z,23.27
2018-08-22T23:31:58.315Z,23.60
2018-08-22T23:35:20.840Z,29.03
2018-08-22T23:38:35.813Z,28.30
2018-08-22T23:41:39.943Z,30.57
2018-08-22T23:44:45.259Z,28.40
2018-08-22T23:47:49.593Z,28.37
2018-08-22T23:50:59.540Z,26.87
2018-08-22T23:54:03.939Z,30.20
2018-08-22T23:57:08.258Z,32.37
